sensor_id;sensor_type;location;lat;lon;timestamp;P1;durP1;ratioP1;P2;durP2;ratioP2
48122;SDS011;33907;47.426;18.906;2023-06-22T00:00:26;12.10;;;7.28;;
48122;SDS011;33907;47.426;18.906;2023-06-22T00:02:54;15.05;;;7.28;;
48122;SDS011;33907;47.426;18.906;2023-06-22T00:05:22;14.80;;;6.93;;
48122;SDS011;33907;47.426;18.906;2023-06-22T00:07:49;14.02;;;7.85;;
48122;SDS011;33907;47.426;18.906;2023-06-22T00:10:17;13.30;;;6.37;;
48122;SDS011;33907;47.426;18.906;2023-06-22T00:12:45;16.85;;;7.62;;
48122;SDS011;33907;47.426;18.906;2023-06-22T00:15:12;16.60;;;6.72;;
48122;SDS011;33907;47.426;18.906;2023-06-22T00:17:40;12.13;;;6.37;;
48122;SDS011;33907;47.426;18.906;2023-06-22T00:20:08;12.13;;;6.47;;
48122;SDS011;33907;47.426;18.906;2023-06-22T00:22:37;13.52;;;6.25;;
48122;SDS011;33907;47.426;18.906;2023-06-22T00:25:06;11.20;;;6.90;;
48122;SDS011;33907;47.426;18.906;2023-06-22T00:27:35;14.73;;;6.72;;
48122;SDS011;33907;47.426;18.906;2023-06-22T00:30:03;16.17;;;7.60;;
48122;SDS011;33907;47.426;18.906;2023-06-22T00:32:31;13.75;;;6.57;;
48122;SDS011;33907;47.426;18.906;2023-06-22T00:34:58;13.75;;;7.07;;
48122;SDS011;33907;47.426;18.906;2023-06-22T00:37:45;15.68;;;6.70;;
48122;SDS011;33907;47.426;18.906;2023-06-22T00:40:14;12.60;;;6.45;;
48122;SDS011;33907;47.426;18.906;2023-06-22T00:42:41;12.60;;;6.43;;
48122;SDS011;33907;47.426;18.906;2023-06-22T00:45:09;19.27;;;7.15;;
48122;SDS011;33907;47.426;18.906;2023-06-22T00:47:37;15.32;;;6.90;;
48122;SDS011;33907;47.426;18.906;2023-06-22T00:50:06;11.75;;;6.15;;
48122;SDS011;33907;47.426;18.906;2023-06-22T00:52:35;13.65;;;5.85;;
48122;SDS011;33907;47.426;18.906;2023-06-22T00:55:03;12.55;;;5.70;;
48122;SDS011;33907;47.426;18.906;2023-06-22T00:57:31;13.77;;;6.05;;
48122;SDS011;33907;47.426;18.906;2023-06-22T00:59:59;13.43;;;5.57;;
48122;SDS011;33907;47.426;18.906;2023-06-22T01:02:26;11.98;;;5.20;;
48122;SDS011;33907;47.426;18.906;2023-06-22T01:04:54;12.60;;;5.00;;
48122;SDS011;33907;47.426;18.906;2023-06-22T01:07:34;20.45;;;6.07;;
48122;SDS011;33907;47.426;18.906;2023-06-22T01:12:37;11.63;;;4.87;;
48122;SDS011;33907;47.426;18.906;2023-06-22T01:15:13;11.65;;;5.20;;
48122;SDS011;33907;47.426;18.906;2023-06-22T01:17:43;14.05;;;5.25;;
48122;SDS011;33907;47.426;18.906;2023-06-22T01:20:13;11.95;;;5.03;;
48122;SDS011;33907;47.426;18.906;2023-06-22T01:22:59;13.32;;;5.35;;
48122;SDS011;33907;47.426;18.906;2023-06-22T01:25:46;11.18;;;5.10;;
48122;SDS011;33907;47.426;18.906;2023-06-22T01:31:10;14.68;;;5.97;;
48122;SDS011;33907;47.426;18.906;2023-06-22T01:33:40;15.35;;;5.65;;
48122;SDS011;33907;47.426;18.906;2023-06-22T01:36:09;14.55;;;6.03;;
48122;SDS011;33907;47.426;18.906;2023-06-22T01:38:38;14.38;;;6.15;;
48122;SDS011;33907;47.426;18.906;2023-06-22T01:41:06;17.08;;;7.00;;
48122;SDS011;33907;47.426;18.906;2023-06-22T01:43:33;16.48;;;7.15;;
48122;SDS011;33907;47.426;18.906;2023-06-22T01:46:01;16.27;;;7.75;;
48122;SDS011;33907;47.426;18.906;2023-06-22T01:48:29;14.52;;;8.73;;
48122;SDS011;33907;47.426;18.906;2023-06-22T01:50:58;14.95;;;7.82;;
48122;SDS011;33907;47.426;18.906;2023-06-22T01:53:25;13.77;;;8.35;;
48122;SDS011;33907;47.426;18.906;2023-06-22T01:55:53;15.65;;;8.55;;
48122;SDS011;33907;47.426;18.906;2023-06-22T01:58:21;17.90;;;9.45;;
48122;SDS011;33907;47.426;18.906;2023-06-22T02:00:53;19.52;;;9.35;;
48122;SDS011;33907;47.426;18.906;2023-06-22T02:03:41;12.80;;;8.85;;
48122;SDS011;33907;47.426;18.906;2023-06-22T02:06:17;16.45;;;9.23;;
48122;SDS011;33907;47.426;18.906;2023-06-22T02:09:03;15.80;;;9.30;;
48122;SDS011;33907;47.426;18.906;2023-06-22T02:11:35;14.80;;;9.70;;
48122;SDS011;33907;47.426;18.906;2023-06-22T02:14:04;19.02;;;10.88;;
48122;SDS011;33907;47.426;18.906;2023-06-22T02:16:33;17.25;;;10.90;;
48122;SDS011;33907;47.426;18.906;2023-06-22T02:19:02;19.92;;;10.52;;
48122;SDS011;33907;47.426;18.906;2023-06-22T02:21:33;16.50;;;10.32;;
48122;SDS011;33907;47.426;18.906;2023-06-22T02:24:01;17.55;;;9.48;;
48122;SDS011;33907;47.426;18.906;2023-06-22T02:26:29;15.63;;;9.55;;
48122;SDS011;33907;47.426;18.906;2023-06-22T02:28:57;13.20;;;9.68;;
48122;SDS011;33907;47.426;18.906;2023-06-22T02:31:25;14.15;;;9.55;;
48122;SDS011;33907;47.426;18.906;2023-06-22T02:33:58;14.98;;;8.77;;
48122;SDS011;33907;47.426;18.906;2023-06-22T02:36:26;15.20;;;8.05;;
48122;SDS011;33907;47.426;18.906;2023-06-22T02:38:58;16.00;;;8.07;;
48122;SDS011;33907;47.426;18.906;2023-06-22T02:41:30;18.23;;;7.53;;
48122;SDS011;33907;47.426;18.906;2023-06-22T02:43:57;10.77;;;6.82;;
48122;SDS011;33907;47.426;18.906;2023-06-22T02:46:25;13.90;;;7.18;;
48122;SDS011;33907;47.426;18.906;2023-06-22T02:48:53;14.30;;;7.12;;
48122;SDS011;33907;47.426;18.906;2023-06-22T02:51:20;14.25;;;6.90;;
48122;SDS011;33907;47.426;18.906;2023-06-22T02:53:47;15.82;;;7.28;;
48122;SDS011;33907;47.426;18.906;2023-06-22T02:56:16;12.75;;;6.82;;
48122;SDS011;33907;47.426;18.906;2023-06-22T02:58:44;13.10;;;6.25;;
48122;SDS011;33907;47.426;18.906;2023-06-22T03:01:12;20.52;;;6.37;;
48122;SDS011;33907;47.426;18.906;2023-06-22T03:03:42;11.88;;;6.65;;
48122;SDS011;33907;47.426;18.906;2023-06-22T03:06:09;15.15;;;7.30;;
48122;SDS011;33907;47.426;18.906;2023-06-22T03:08:41;11.30;;;6.30;;
48122;SDS011;33907;47.426;18.906;2023-06-22T03:11:09;14.15;;;6.97;;
48122;SDS011;33907;47.426;18.906;2023-06-22T03:13:36;16.02;;;7.35;;
48122;SDS011;33907;47.426;18.906;2023-06-22T03:16:05;14.98;;;6.32;;
48122;SDS011;33907;47.426;18.906;2023-06-22T03:18:33;13.77;;;6.80;;
48122;SDS011;33907;47.426;18.906;2023-06-22T03:21:00;13.55;;;6.65;;
48122;SDS011;33907;47.426;18.906;2023-06-22T03:23:31;18.60;;;6.93;;
48122;SDS011;33907;47.426;18.906;2023-06-22T03:25:58;15.32;;;6.20;;
48122;SDS011;33907;47.426;18.906;2023-06-22T03:28:26;13.20;;;6.78;;
48122;SDS011;33907;47.426;18.906;2023-06-22T03:30:54;15.05;;;6.10;;
48122;SDS011;33907;47.426;18.906;2023-06-22T03:33:22;16.87;;;6.70;;
48122;SDS011;33907;47.426;18.906;2023-06-22T03:35:49;14.02;;;6.45;;
48122;SDS011;33907;47.426;18.906;2023-06-22T03:38:17;18.05;;;6.35;;
48122;SDS011;33907;47.426;18.906;2023-06-22T03:40:45;10.68;;;5.68;;
48122;SDS011;33907;47.426;18.906;2023-06-22T03:43:13;12.98;;;5.75;;
48122;SDS011;33907;47.426;18.906;2023-06-22T03:45:40;11.18;;;5.57;;
48122;SDS011;33907;47.426;18.906;2023-06-22T03:48:08;10.50;;;6.00;;
48122;SDS011;33907;47.426;18.906;2023-06-22T03:50:36;10.90;;;5.05;;
48122;SDS011;33907;47.426;18.906;2023-06-22T03:53:04;12.18;;;5.75;;
48122;SDS011;33907;47.426;18.906;2023-06-22T03:55:33;14.27;;;5.40;;
48122;SDS011;33907;47.426;18.906;2023-06-22T03:58:01;10.85;;;5.57;;
48122;SDS011;33907;47.426;18.906;2023-06-22T04:00:33;17.50;;;5.60;;
48122;SDS011;33907;47.426;18.906;2023-06-22T04:03:00;13.90;;;5.43;;
48122;SDS011;33907;47.426;18.906;2023-06-22T04:05:28;13.45;;;5.30;;
48122;SDS011;33907;47.426;18.906;2023-06-22T04:07:55;12.23;;;5.55;;
48122;SDS011;33907;47.426;18.906;2023-06-22T04:10:23;16.90;;;6.05;;
48122;SDS011;33907;47.426;18.906;2023-06-22T04:12:51;11.32;;;5.40;;
48122;SDS011;33907;47.426;18.906;2023-06-22T04:15:18;12.30;;;4.90;;
48122;SDS011;33907;47.426;18.906;2023-06-22T04:17:46;13.52;;;5.32;;
48122;SDS011;33907;47.426;18.906;2023-06-22T04:20:14;14.18;;;5.32;;
48122;SDS011;33907;47.426;18.906;2023-06-22T04:22:41;12.20;;;5.45;;
48122;SDS011;33907;47.426;18.906;2023-06-22T04:25:09;13.68;;;5.57;;
48122;SDS011;33907;47.426;18.906;2023-06-22T04:27:37;12.35;;;5.40;;
48122;SDS011;33907;47.426;18.906;2023-06-22T04:30:07;14.80;;;5.90;;
48122;SDS011;33907;47.426;18.906;2023-06-22T04:32:35;10.77;;;5.30;;
48122;SDS011;33907;47.426;18.906;2023-06-22T04:35:07;10.57;;;5.45;;
48122;SDS011;33907;47.426;18.906;2023-06-22T04:37:34;15.38;;;5.75;;
48122;SDS011;33907;47.426;18.906;2023-06-22T04:40:02;11.77;;;5.65;;
48122;SDS011;33907;47.426;18.906;2023-06-22T04:42:33;14.30;;;5.80;;
48122;SDS011;33907;47.426;18.906;2023-06-22T04:45:02;13.82;;;6.07;;
48122;SDS011;33907;47.426;18.906;2023-06-22T04:47:30;12.90;;;4.75;;
48122;SDS011;33907;47.426;18.906;2023-06-22T04:49:58;15.52;;;5.20;;
48122;SDS011;33907;47.426;18.906;2023-06-22T04:52:25;13.90;;;5.95;;
48122;SDS011;33907;47.426;18.906;2023-06-22T04:54:53;12.90;;;5.93;;
48122;SDS011;33907;47.426;18.906;2023-06-22T04:57:24;13.32;;;5.97;;
48122;SDS011;33907;47.426;18.906;2023-06-22T05:00:00;12.15;;;5.30;;
48122;SDS011;33907;47.426;18.906;2023-06-22T05:02:54;11.48;;;5.78;;
48122;SDS011;33907;47.426;18.906;2023-06-22T05:05:44;10.20;;;5.70;;
48122;SDS011;33907;47.426;18.906;2023-06-22T05:08:12;13.68;;;5.32;;
48122;SDS011;33907;47.426;18.906;2023-06-22T05:10:40;16.62;;;5.72;;
48122;SDS011;33907;47.426;18.906;2023-06-22T05:13:28;11.23;;;5.57;;
48122;SDS011;33907;47.426;18.906;2023-06-22T05:15:55;11.65;;;5.22;;
48122;SDS011;33907;47.426;18.906;2023-06-22T05:18:31;11.93;;;4.93;;
48122;SDS011;33907;47.426;18.906;2023-06-22T05:21:00;13.80;;;4.80;;
48122;SDS011;33907;47.426;18.906;2023-06-22T05:23:27;12.65;;;5.50;;
48122;SDS011;33907;47.426;18.906;2023-06-22T05:25:55;16.45;;;5.28;;
48122;SDS011;33907;47.426;18.906;2023-06-22T05:28:25;15.25;;;5.32;;
48122;SDS011;33907;47.426;18.906;2023-06-22T05:30:52;12.13;;;5.40;;
48122;SDS011;33907;47.426;18.906;2023-06-22T05:33:20;11.02;;;5.57;;
48122;SDS011;33907;47.426;18.906;2023-06-22T05:35:48;12.73;;;5.30;;
48122;SDS011;33907;47.426;18.906;2023-06-22T05:38:15;12.32;;;5.15;;
48122;SDS011;33907;47.426;18.906;2023-06-22T05:40:43;14.77;;;5.45;;
48122;SDS011;33907;47.426;18.906;2023-06-22T05:43:10;12.75;;;4.85;;
48122;SDS011;33907;47.426;18.906;2023-06-22T05:45:38;13.35;;;5.15;;
48122;SDS011;33907;47.426;18.906;2023-06-22T05:48:06;14.98;;;5.03;;
48122;SDS011;33907;47.426;18.906;2023-06-22T05:50:33;10.90;;;4.50;;
48122;SDS011;33907;47.426;18.906;2023-06-22T05:53:01;11.40;;;4.82;;
48122;SDS011;33907;47.426;18.906;2023-06-22T05:55:28;17.00;;;5.30;;
48122;SDS011;33907;47.426;18.906;2023-06-22T05:57:56;12.30;;;5.12;;
48122;SDS011;33907;47.426;18.906;2023-06-22T06:00:23;10.73;;;4.53;;
48122;SDS011;33907;47.426;18.906;2023-06-22T06:02:51;14.40;;;4.55;;
48122;SDS011;33907;47.426;18.906;2023-06-22T06:05:19;14.35;;;5.00;;
48122;SDS011;33907;47.426;18.906;2023-06-22T06:07:46;15.10;;;5.12;;
48122;SDS011;33907;47.426;18.906;2023-06-22T06:10:14;15.13;;;5.32;;
48122;SDS011;33907;47.426;18.906;2023-06-22T06:12:42;15.45;;;5.22;;
48122;SDS011;33907;47.426;18.906;2023-06-22T06:15:09;14.18;;;5.10;;
48122;SDS011;33907;47.426;18.906;2023-06-22T06:20:15;15.85;;;5.28;;
48122;SDS011;33907;47.426;18.906;2023-06-22T06:22:45;13.52;;;6.10;;
48122;SDS011;33907;47.426;18.906;2023-06-22T06:25:13;13.15;;;4.80;;
48122;SDS011;33907;47.426;18.906;2023-06-22T06:27:43;11.43;;;4.85;;
48122;SDS011;33907;47.426;18.906;2023-06-22T06:30:11;17.48;;;5.20;;
48122;SDS011;33907;47.426;18.906;2023-06-22T06:32:40;11.23;;;5.00;;
48122;SDS011;33907;47.426;18.906;2023-06-22T06:35:08;10.15;;;4.90;;
48122;SDS011;33907;47.426;18.906;2023-06-22T06:37:37;10.27;;;4.78;;
48122;SDS011;33907;47.426;18.906;2023-06-22T06:40:09;12.23;;;4.40;;
48122;SDS011;33907;47.426;18.906;2023-06-22T06:42:38;14.13;;;5.00;;
48122;SDS011;33907;47.426;18.906;2023-06-22T06:45:12;14.35;;;4.85;;
48122;SDS011;33907;47.426;18.906;2023-06-22T06:47:42;10.75;;;4.68;;
48122;SDS011;33907;47.426;18.906;2023-06-22T06:50:10;15.55;;;5.35;;
48122;SDS011;33907;47.426;18.906;2023-06-22T06:52:38;14.18;;;4.62;;
48122;SDS011;33907;47.426;18.906;2023-06-22T06:55:06;11.70;;;5.05;;
48122;SDS011;33907;47.426;18.906;2023-06-22T06:57:41;14.90;;;5.22;;
48122;SDS011;33907;47.426;18.906;2023-06-22T07:00:10;11.63;;;4.90;;
48122;SDS011;33907;47.426;18.906;2023-06-22T07:02:41;16.37;;;4.70;;
48122;SDS011;33907;47.426;18.906;2023-06-22T07:05:11;14.57;;;5.20;;
48122;SDS011;33907;47.426;18.906;2023-06-22T07:07:39;14.43;;;5.20;;
48122;SDS011;33907;47.426;18.906;2023-06-22T07:10:09;11.45;;;4.78;;
48122;SDS011;33907;47.426;18.906;2023-06-22T07:12:37;10.38;;;4.15;;
48122;SDS011;33907;47.426;18.906;2023-06-22T07:15:05;10.32;;;4.60;;
48122;SDS011;33907;47.426;18.906;2023-06-22T07:17:37;10.45;;;4.80;;
48122;SDS011;33907;47.426;18.906;2023-06-22T07:20:06;11.73;;;5.37;;
48122;SDS011;33907;47.426;18.906;2023-06-22T07:22:38;13.75;;;5.55;;
48122;SDS011;33907;47.426;18.906;2023-06-22T07:25:07;11.55;;;5.43;;
48122;SDS011;33907;47.426;18.906;2023-06-22T07:28:01;11.07;;;6.03;;
48122;SDS011;33907;47.426;18.906;2023-06-22T07:30:34;10.95;;;6.53;;
48122;SDS011;33907;47.426;18.906;2023-06-22T07:33:02;12.13;;;6.43;;
48122;SDS011;33907;47.426;18.906;2023-06-22T07:35:31;12.68;;;7.03;;
48122;SDS011;33907;47.426;18.906;2023-06-22T07:37:59;12.15;;;5.97;;
48122;SDS011;33907;47.426;18.906;2023-06-22T07:40:32;12.95;;;7.72;;
48122;SDS011;33907;47.426;18.906;2023-06-22T07:43:00;12.30;;;6.97;;
48122;SDS011;33907;47.426;18.906;2023-06-22T07:45:28;12.95;;;7.45;;
48122;SDS011;33907;47.426;18.906;2023-06-22T07:47:55;11.90;;;6.87;;
48122;SDS011;33907;47.426;18.906;2023-06-22T07:50:23;11.52;;;7.57;;
48122;SDS011;33907;47.426;18.906;2023-06-22T07:52:51;15.75;;;7.35;;
48122;SDS011;33907;47.426;18.906;2023-06-22T07:55:20;14.48;;;7.47;;
48122;SDS011;33907;47.426;18.906;2023-06-22T07:57:48;11.50;;;7.20;;
48122;SDS011;33907;47.426;18.906;2023-06-22T08:00:16;13.57;;;7.43;;
48122;SDS011;33907;47.426;18.906;2023-06-22T08:02:45;15.88;;;7.75;;
48122;SDS011;33907;47.426;18.906;2023-06-22T08:05:14;14.38;;;8.15;;
48122;SDS011;33907;47.426;18.906;2023-06-22T08:07:48;11.75;;;7.53;;
48122;SDS011;33907;47.426;18.906;2023-06-22T08:10:16;12.00;;;7.12;;
48122;SDS011;33907;47.426;18.906;2023-06-22T08:12:44;11.18;;;7.57;;
48122;SDS011;33907;47.426;18.906;2023-06-22T08:15:12;11.90;;;7.30;;
48122;SDS011;33907;47.426;18.906;2023-06-22T08:17:40;12.80;;;7.95;;
48122;SDS011;33907;47.426;18.906;2023-06-22T08:20:08;11.75;;;7.45;;
48122;SDS011;33907;47.426;18.906;2023-06-22T08:22:42;15.40;;;8.07;;
48122;SDS011;33907;47.426;18.906;2023-06-22T08:25:10;13.75;;;8.43;;
48122;SDS011;33907;47.426;18.906;2023-06-22T08:27:38;15.73;;;9.38;;
48122;SDS011;33907;47.426;18.906;2023-06-22T08:30:06;11.57;;;8.23;;
48122;SDS011;33907;47.426;18.906;2023-06-22T08:32:34;11.20;;;7.72;;
48122;SDS011;33907;47.426;18.906;2023-06-22T08:35:02;10.73;;;8.35;;
48122;SDS011;33907;47.426;18.906;2023-06-22T08:37:30;12.37;;;8.20;;
48122;SDS011;33907;47.426;18.906;2023-06-22T08:39:58;14.52;;;8.38;;
48122;SDS011;33907;47.426;18.906;2023-06-22T08:42:27;12.80;;;8.95;;
48122;SDS011;33907;47.426;18.906;2023-06-22T08:44:55;14.95;;;9.02;;
48122;SDS011;33907;47.426;18.906;2023-06-22T08:47:22;14.52;;;7.90;;
48122;SDS011;33907;47.426;18.906;2023-06-22T08:49:50;12.65;;;8.57;;
48122;SDS011;33907;47.426;18.906;2023-06-22T08:52:18;12.55;;;8.52;;
48122;SDS011;33907;47.426;18.906;2023-06-22T08:54:47;14.65;;;8.82;;
48122;SDS011;33907;47.426;18.906;2023-06-22T08:57:15;14.68;;;9.48;;
48122;SDS011;33907;47.426;18.906;2023-06-22T08:59:43;16.95;;;9.30;;
48122;SDS011;33907;47.426;18.906;2023-06-22T09:02:10;12.13;;;8.10;;
48122;SDS011;33907;47.426;18.906;2023-06-22T09:04:39;18.40;;;8.25;;
48122;SDS011;33907;47.426;18.906;2023-06-22T09:07:07;11.63;;;8.70;;
48122;SDS011;33907;47.426;18.906;2023-06-22T09:09:34;11.00;;;7.78;;
48122;SDS011;33907;47.426;18.906;2023-06-22T09:12:02;12.70;;;8.95;;
48122;SDS011;33907;47.426;18.906;2023-06-22T09:14:29;13.25;;;9.73;;
48122;SDS011;33907;47.426;18.906;2023-06-22T09:16:57;11.10;;;8.43;;
48122;SDS011;33907;47.426;18.906;2023-06-22T09:19:24;13.55;;;9.10;;
48122;SDS011;33907;47.426;18.906;2023-06-22T09:21:52;13.15;;;8.98;;
48122;SDS011;33907;47.426;18.906;2023-06-22T09:24:19;16.08;;;9.23;;
48122;SDS011;33907;47.426;18.906;2023-06-22T09:26:47;14.10;;;8.40;;
48122;SDS011;33907;47.426;18.906;2023-06-22T09:29:15;12.50;;;8.65;;
48122;SDS011;33907;47.426;18.906;2023-06-22T09:31:42;16.70;;;9.55;;
48122;SDS011;33907;47.426;18.906;2023-06-22T09:34:10;11.88;;;8.23;;
48122;SDS011;33907;47.426;18.906;2023-06-22T09:36:37;13.95;;;8.65;;
48122;SDS011;33907;47.426;18.906;2023-06-22T09:39:06;18.20;;;9.13;;
48122;SDS011;33907;47.426;18.906;2023-06-22T09:41:34;13.60;;;8.27;;
48122;SDS011;33907;47.426;18.906;2023-06-22T09:44:02;15.77;;;8.57;;
48122;SDS011;33907;47.426;18.906;2023-06-22T09:46:29;11.25;;;8.63;;
48122;SDS011;33907;47.426;18.906;2023-06-22T09:48:57;12.60;;;8.35;;
48122;SDS011;33907;47.426;18.906;2023-06-22T09:51:24;12.82;;;8.95;;
48122;SDS011;33907;47.426;18.906;2023-06-22T09:53:52;13.82;;;8.68;;
48122;SDS011;33907;47.426;18.906;2023-06-22T09:56:22;16.42;;;8.77;;
48122;SDS011;33907;47.426;18.906;2023-06-22T09:58:50;13.62;;;8.55;;
48122;SDS011;33907;47.426;18.906;2023-06-22T10:01:20;13.62;;;9.60;;
48122;SDS011;33907;47.426;18.906;2023-06-22T10:03:49;14.38;;;9.00;;
48122;SDS011;33907;47.426;18.906;2023-06-22T10:06:16;14.57;;;8.93;;
48122;SDS011;33907;47.426;18.906;2023-06-22T10:08:44;14.60;;;9.50;;
48122;SDS011;33907;47.426;18.906;2023-06-22T10:11:12;15.70;;;9.05;;
48122;SDS011;33907;47.426;18.906;2023-06-22T10:13:39;12.85;;;8.93;;
48122;SDS011;33907;47.426;18.906;2023-06-22T10:16:06;11.80;;;8.82;;
48122;SDS011;33907;47.426;18.906;2023-06-22T10:18:34;14.00;;;8.68;;
48122;SDS011;33907;47.426;18.906;2023-06-22T10:21:02;13.70;;;9.25;;
48122;SDS011;33907;47.426;18.906;2023-06-22T10:23:29;16.25;;;8.70;;
48122;SDS011;33907;47.426;18.906;2023-06-22T10:25:57;11.10;;;8.88;;
48122;SDS011;33907;47.426;18.906;2023-06-22T10:28:25;12.50;;;9.05;;
48122;SDS011;33907;47.426;18.906;2023-06-22T10:30:52;14.05;;;8.88;;
48122;SDS011;33907;47.426;18.906;2023-06-22T10:33:20;16.65;;;9.23;;
48122;SDS011;33907;47.426;18.906;2023-06-22T10:35:48;14.73;;;9.20;;
48122;SDS011;33907;47.426;18.906;2023-06-22T10:38:16;13.00;;;8.60;;
48122;SDS011;33907;47.426;18.906;2023-06-22T10:40:44;14.32;;;9.20;;
48122;SDS011;33907;47.426;18.906;2023-06-22T10:43:11;12.90;;;8.88;;
48122;SDS011;33907;47.426;18.906;2023-06-22T10:45:39;13.60;;;8.52;;
48122;SDS011;33907;47.426;18.906;2023-06-22T10:48:07;12.32;;;9.02;;
48122;SDS011;33907;47.426;18.906;2023-06-22T10:50:35;14.27;;;9.43;;
48122;SDS011;33907;47.426;18.906;2023-06-22T10:53:02;16.05;;;8.85;;
48122;SDS011;33907;47.426;18.906;2023-06-22T10:55:30;14.70;;;9.27;;
48122;SDS011;33907;47.426;18.906;2023-06-22T10:58:18;13.80;;;9.23;;
48122;SDS011;33907;47.426;18.906;2023-06-22T11:00:46;13.68;;;9.02;;
48122;SDS011;33907;47.426;18.906;2023-06-22T11:03:13;12.90;;;9.38;;
48122;SDS011;33907;47.426;18.906;2023-06-22T11:05:41;11.60;;;8.48;;
48122;SDS011;33907;47.426;18.906;2023-06-22T11:08:09;11.63;;;8.20;;
48122;SDS011;33907;47.426;18.906;2023-06-22T11:10:36;16.95;;;9.10;;
48122;SDS011;33907;47.426;18.906;2023-06-22T11:13:04;20.08;;;8.90;;
48122;SDS011;33907;47.426;18.906;2023-06-22T11:15:33;14.13;;;9.15;;
48122;SDS011;33907;47.426;18.906;2023-06-22T11:18:01;17.20;;;8.95;;
48122;SDS011;33907;47.426;18.906;2023-06-22T11:20:28;12.73;;;8.27;;
48122;SDS011;33907;47.426;18.906;2023-06-22T11:22:56;17.05;;;8.98;;
48122;SDS011;33907;47.426;18.906;2023-06-22T11:25:24;13.55;;;8.07;;
48122;SDS011;33907;47.426;18.906;2023-06-22T11:27:51;11.95;;;8.70;;
48122;SDS011;33907;47.426;18.906;2023-06-22T11:30:21;12.30;;;8.60;;
48122;SDS011;33907;47.426;18.906;2023-06-22T11:32:50;12.10;;;8.18;;
48122;SDS011;33907;47.426;18.906;2023-06-22T11:35:17;15.20;;;8.32;;
48122;SDS011;33907;47.426;18.906;2023-06-22T11:37:45;13.07;;;8.38;;
48122;SDS011;33907;47.426;18.906;2023-06-22T11:40:13;20.55;;;9.02;;
48122;SDS011;33907;47.426;18.906;2023-06-22T11:42:40;15.00;;;8.77;;
48122;SDS011;33907;47.426;18.906;2023-06-22T11:45:08;12.60;;;8.18;;
48122;SDS011;33907;47.426;18.906;2023-06-22T11:47:35;12.63;;;8.45;;
48122;SDS011;33907;47.426;18.906;2023-06-22T11:50:03;18.23;;;8.38;;
48122;SDS011;33907;47.426;18.906;2023-06-22T11:52:33;12.77;;;8.10;;
48122;SDS011;33907;47.426;18.906;2023-06-22T11:55:00;15.27;;;8.32;;
48122;SDS011;33907;47.426;18.906;2023-06-22T11:57:30;12.37;;;8.18;;
48122;SDS011;33907;47.426;18.906;2023-06-22T11:59:59;14.98;;;8.10;;
48122;SDS011;33907;47.426;18.906;2023-06-22T12:02:32;19.08;;;8.50;;
48122;SDS011;33907;47.426;18.906;2023-06-22T12:05:00;13.55;;;8.23;;
48122;SDS011;33907;47.426;18.906;2023-06-22T12:07:31;17.10;;;8.48;;
48122;SDS011;33907;47.426;18.906;2023-06-22T12:09:59;13.95;;;8.43;;
48122;SDS011;33907;47.426;18.906;2023-06-22T12:12:26;13.05;;;7.47;;
48122;SDS011;33907;47.426;18.906;2023-06-22T12:14:54;17.90;;;8.55;;
48122;SDS011;33907;47.426;18.906;2023-06-22T12:17:21;16.37;;;8.48;;
48122;SDS011;33907;47.426;18.906;2023-06-22T12:19:49;13.82;;;8.10;;
48122;SDS011;33907;47.426;18.906;2023-06-22T12:22:17;12.30;;;8.05;;
48122;SDS011;33907;47.426;18.906;2023-06-22T12:24:44;10.35;;;7.25;;
48122;SDS011;33907;47.426;18.906;2023-06-22T12:27:12;11.85;;;7.53;;
48122;SDS011;33907;47.426;18.906;2023-06-22T12:29:39;14.23;;;7.80;;
48122;SDS011;33907;47.426;18.906;2023-06-22T12:32:07;13.43;;;7.40;;
48122;SDS011;33907;47.426;18.906;2023-06-22T12:34:35;10.52;;;6.97;;
48122;SDS011;33907;47.426;18.906;2023-06-22T12:37:02;15.30;;;7.97;;
48122;SDS011;33907;47.426;18.906;2023-06-22T12:39:31;15.60;;;7.50;;
48122;SDS011;33907;47.426;18.906;2023-06-22T12:42:00;16.92;;;7.62;;
48122;SDS011;33907;47.426;18.906;2023-06-22T12:44:27;10.98;;;6.72;;
48122;SDS011;33907;47.426;18.906;2023-06-22T12:46:55;12.45;;;7.87;;
48122;SDS011;33907;47.426;18.906;2023-06-22T12:49:22;12.13;;;7.97;;
48122;SDS011;33907;47.426;18.906;2023-06-22T12:51:50;11.80;;;7.45;;
48122;SDS011;33907;47.426;18.906;2023-06-22T12:54:17;15.05;;;7.15;;
48122;SDS011;33907;47.426;18.906;2023-06-22T12:56:45;15.38;;;7.10;;
48122;SDS011;33907;47.426;18.906;2023-06-22T12:59:12;14.80;;;7.90;;
48122;SDS011;33907;47.426;18.906;2023-06-22T13:01:40;11.48;;;6.95;;
48122;SDS011;33907;47.426;18.906;2023-06-22T13:04:08;12.73;;;7.22;;
48122;SDS011;33907;47.426;18.906;2023-06-22T13:06:38;12.75;;;7.53;;
48122;SDS011;33907;47.426;18.906;2023-06-22T13:09:05;13.90;;;6.68;;
48122;SDS011;33907;47.426;18.906;2023-06-22T13:11:47;11.30;;;6.93;;
48122;SDS011;33907;47.426;18.906;2023-06-22T13:14:15;15.52;;;7.20;;
48122;SDS011;33907;47.426;18.906;2023-06-22T13:16:43;11.50;;;6.62;;
48122;SDS011;33907;47.426;18.906;2023-06-22T13:19:11;12.85;;;6.78;;
48122;SDS011;33907;47.426;18.906;2023-06-22T13:21:38;13.70;;;6.95;;
48122;SDS011;33907;47.426;18.906;2023-06-22T13:24:06;15.77;;;8.18;;
48122;SDS011;33907;47.426;18.906;2023-06-22T13:26:33;13.57;;;7.40;;
48122;SDS011;33907;47.426;18.906;2023-06-22T13:29:01;17.60;;;6.75;;
48122;SDS011;33907;47.426;18.906;2023-06-22T13:31:28;14.25;;;7.03;;
48122;SDS011;33907;47.426;18.906;2023-06-22T13:33:56;12.25;;;7.57;;
48122;SDS011;33907;47.426;18.906;2023-06-22T13:36:24;14.15;;;7.20;;
48122;SDS011;33907;47.426;18.906;2023-06-22T13:38:51;15.90;;;7.12;;
48122;SDS011;33907;47.426;18.906;2023-06-22T13:41:19;12.73;;;7.30;;
48122;SDS011;33907;47.426;18.906;2023-06-22T13:43:46;14.55;;;7.00;;
48122;SDS011;33907;47.426;18.906;2023-06-22T13:46:14;12.37;;;7.15;;
48122;SDS011;33907;47.426;18.906;2023-06-22T13:49:02;14.75;;;7.43;;
48122;SDS011;33907;47.426;18.906;2023-06-22T13:51:29;16.70;;;6.50;;
48122;SDS011;33907;47.426;18.906;2023-06-22T13:53:57;12.05;;;6.82;;
48122;SDS011;33907;47.426;18.906;2023-06-22T13:56:24;11.95;;;6.40;;
48122;SDS011;33907;47.426;18.906;2023-06-22T13:58:52;13.32;;;6.85;;
48122;SDS011;33907;47.426;18.906;2023-06-22T14:01:20;11.45;;;6.87;;
48122;SDS011;33907;47.426;18.906;2023-06-22T14:03:48;18.48;;;7.12;;
48122;SDS011;33907;47.426;18.906;2023-06-22T14:06:15;15.15;;;7.43;;
48122;SDS011;33907;47.426;18.906;2023-06-22T14:08:42;11.43;;;7.15;;
48122;SDS011;33907;47.426;18.906;2023-06-22T14:11:10;12.45;;;7.15;;
48122;SDS011;33907;47.426;18.906;2023-06-22T14:13:38;11.68;;;6.65;;
48122;SDS011;33907;47.426;18.906;2023-06-22T14:16:05;15.60;;;7.68;;
48122;SDS011;33907;47.426;18.906;2023-06-22T14:18:33;12.18;;;6.32;;
48122;SDS011;33907;47.426;18.906;2023-06-22T14:21:00;19.17;;;7.62;;
48122;SDS011;33907;47.426;18.906;2023-06-22T14:23:28;11.70;;;7.15;;
48122;SDS011;33907;47.426;18.906;2023-06-22T14:25:57;14.25;;;7.35;;
48122;SDS011;33907;47.426;18.906;2023-06-22T14:28:24;15.13;;;7.62;;
48122;SDS011;33907;47.426;18.906;2023-06-22T14:30:52;13.43;;;6.87;;
48122;SDS011;33907;47.426;18.906;2023-06-22T14:33:19;13.88;;;7.20;;
48122;SDS011;33907;47.426;18.906;2023-06-22T14:35:47;15.00;;;7.10;;
48122;SDS011;33907;47.426;18.906;2023-06-22T14:38:14;13.75;;;7.75;;